Time;durP1;ratioP1;P1;durP2;ratioP2;P2;SDS_P1;SDS_P2;PMS_P1;PMS_P2;Temp;Humidity;BMP_temperature;BMP_pressure;BME280_temperature;BME280_humidity;BME280_pressure;Samples;Min_cycle;Max_cycle;Signal;HPM_P1;HPM_P2
2021/12/02 00:00:09;;;;;;;11.20;3.78;;;7.20;99.90;;;;;;2071413;28;20052;-70
2021/12/02 00:01:10;;;;;;;12.45;3.35;;;7.20;99.90;;;;;;2071028;28;20443;-70
2021/12/02 00:02:11;;;;;;;9.95;3.78;;;7.20;99.90;;;;;;2070442;28;20101;-70
2021/12/02 00:03:12;;;;;;;13.27;3.63;;;7.20;99.90;;;;;;2070293;28;20026;-70
2021/12/02 00:04:13;;;;;;;11.63;3.17;;;7.20;99.90;;;;;;2071836;28;20087;-70
2021/12/02 00:05:13;;;;;;;11.65;3.70;;;7.20;99.90;;;;;;2072624;28;20053;-70
2021/12/02 00:06:16;;;;;;;11.93;3.72;;;7.20;99.90;;;;;;2072638;28;20096;-70
2021/12/02 00:07:17;;;;;;;12.23;3.60;;;7.20;99.90;;;;;;2072021;28;20026;-70
2021/12/02 00:08:18;;;;;;;12.02;3.33;;;7.20;99.90;;;;;;2072398;28;20022;-70
2021/12/02 00:09:18;;;;;;;11.00;3.38;;;7.20;99.90;;;;;;2072716;28;20390;-70
2021/12/02 00:10:19;;;;;;;11.82;3.80;;;7.20;99.90;;;;;;2068273;28;20031;-70
2021/12/02 00:11:20;;;;;;;20.33;4.30;;;7.20;99.90;;;;;;2072403;28;20111;-70
2021/12/02 00:12:21;;;;;;;11.43;4.07;;;7.20;99.90;;;;;;2072976;28;20053;-70
2021/12/02 00:13:25;;;;;;;15.95;3.83;;;7.20;99.90;;;;;;2072511;28;20804;-70
2021/12/02 00:14:27;;;;;;;18.30;3.75;;;7.20;99.90;;;;;;2072019;28;20454;-70
2021/12/02 00:15:45;;;;;;;19.98;4.40;;;7.20;99.90;;;;;;2071934;28;20029;-71
2021/12/02 00:18:30;;;;;;;14.23;3.75;;;7.20;99.90;;;;;;2078505;28;20370;-70
2021/12/02 00:21:09;;;;;;;10.60;3.60;;;7.20;99.90;;;;;;2072496;28;20046;-70
2021/12/02 00:22:12;;;;;;;13.82;3.75;;;7.20;99.90;;;;;;2072954;28;20398;-71
2021/12/02 00:23:28;;;;;;;12.55;3.28;;;7.20;99.90;;;;;;2072702;28;20490;-72
2021/12/02 00:24:37;;;;;;;16.20;3.60;;;7.20;99.90;;;;;;2072779;28;20084;-72
2021/12/02 00:25:38;;;;;;;10.05;3.65;;;7.20;99.90;;;;;;2072553;28;20025;-72
2021/12/02 00:26:39;;;;;;;12.55;3.95;;;7.20;99.90;;;;;;2072250;28;20064;-72
2021/12/02 00:27:41;;;;;;;10.27;3.33;;;7.20;99.90;;;;;;2071760;28;20018;-70
2021/12/02 00:28:42;;;;;;;17.73;3.72;;;7.20;99.90;;;;;;2072723;28;20018;-72
2021/12/02 00:29:45;;;;;;;10.05;4.25;;;7.20;99.90;;;;;;2072475;28;20477;-70
2021/12/02 00:30:46;;;;;;;13.30;3.72;;;7.20;99.90;;;;;;2072705;28;20083;-70
2021/12/02 00:31:49;;;;;;;16.38;4.45;;;7.30;99.90;;;;;;2072317;28;20045;-70
2021/12/02 00:32:55;;;;;;;10.82;3.60;;;7.30;99.90;;;;;;2072460;28;20038;-70
2021/12/02 00:33:59;;;;;;;14.20;3.97;;;7.30;99.90;;;;;;2072571;28;20025;-70
2021/12/02 00:34:59;;;;;;;14.18;4.38;;;7.30;99.90;;;;;;2072768;28;20108;-70
2021/12/02 00:36:01;;;;;;;15.32;4.10;;;7.30;99.90;;;;;;2072530;28;20525;-72
2021/12/02 00:37:02;;;;;;;11.73;3.33;;;7.30;99.90;;;;;;2072783;28;20434;-72
2021/12/02 00:38:02;;;;;;;15.55;3.90;;;7.30;99.90;;;;;;2071838;28;20049;-72
2021/12/02 00:39:09;;;;;;;10.13;3.28;;;7.30;99.90;;;;;;2072489;28;20033;-70
2021/12/02 00:40:10;;;;;;;15.40;3.92;;;7.30;99.90;;;;;;2072739;28;20172;-70
2021/12/02 00:41:16;;;;;;;13.02;4.20;;;7.30;99.90;;;;;;2072245;28;20478;-70
2021/12/02 00:42:17;;;;;;;15.73;3.95;;;7.30;99.90;;;;;;2072578;28;20134;-70
2021/12/02 00:43:18;;;;;;;12.27;3.97;;;7.30;99.90;;;;;;2072621;28;20025;-72
2021/12/02 00:44:18;;;;;;;13.85;3.92;;;7.30;99.90;;;;;;2071949;28;20026;-70
2021/12/02 00:45:19;;;;;;;17.35;4.90;;;7.30;99.90;;;;;;2072582;28;20017;-72
2021/12/02 00:46:22;;;;;;;11.02;3.80;;;7.30;99.90;;;;;;2072461;28;20030;-71
2021/12/02 00:47:23;;;;;;;14.63;4.72;;;7.30;99.90;;;;;;2072545;28;20390;-71
2021/12/02 00:48:24;;;;;;;15.23;3.92;;;7.30;99.90;;;;;;2072126;28;20057;-71
2021/12/02 00:49:24;;;;;;;10.98;3.85;;;7.30;99.90;;;;;;2072356;28;20489;-71
2021/12/02 00:50:25;;;;;;;12.02;4.05;;;7.30;99.90;;;;;;2072389;28;20026;-72
2021/12/02 00:51:27;;;;;;;11.77;4.00;;;7.30;99.90;;;;;;2072637;28;20605;-72
2021/12/02 00:52:28;;;;;;;10.55;4.10;;;7.30;99.90;;;;;;2074116;28;20022;-72
2021/12/02 00:53:31;;;;;;;11.95;3.97;;;7.30;99.90;;;;;;2078322;28;20022;-72
2021/12/02 00:54:32;;;;;;;14.75;3.92;;;7.30;99.90;;;;;;2071552;28;20025;-72
2021/12/02 00:55:38;;;;;;;15.07;4.05;;;7.30;99.90;;;;;;2071766;28;20022;-72
2021/12/02 00:56:39;;;;;;;10.73;3.58;;;7.30;99.90;;;;;;2072418;28;20040;-71
2021/12/02 00:57:41;;;;;;;19.73;4.75;;;7.30;99.90;;;;;;2072053;28;20116;-72
2021/12/02 00:58:46;;;;;;;15.55;4.30;;;7.30;99.90;;;;;;2072776;28;20616;-72
2021/12/02 00:59:48;;;;;;;17.90;4.10;;;7.30;99.90;;;;;;2072695;28;20168;-72
2021/12/02 01:00:52;;;;;;;11.65;4.13;;;7.30;99.90;;;;;;2080157;28;20072;-72
2021/12/02 01:01:53;;;;;;;11.95;3.67;;;7.30;99.90;;;;;;2071131;28;20056;-72
2021/12/02 01:02:54;;;;;;;17.15;4.03;;;7.30;99.90;;;;;;2071544;28;20124;-72
2021/12/02 01:03:59;;;;;;;11.32;4.43;;;7.30;99.90;;;;;;2071998;28;20026;-72
2021/12/02 01:05:00;;;;;;;16.90;4.18;;;7.30;99.90;;;;;;2071660;28;20022;-72
2021/12/02 01:06:02;;;;;;;14.48;3.97;;;7.30;99.90;;;;;;2071746;28;20030;-71
2021/12/02 01:07:03;;;;;;;12.90;4.15;;;7.30;99.90;;;;;;2072234;28;20069;-71
2021/12/02 01:08:05;;;;;;;10.70;3.40;;;7.30;99.90;;;;;;2071933;28;20133;-72
2021/12/02 01:09:06;;;;;;;13.43;3.55;;;7.30;99.90;;;;;;2072302;28;20040;-71
2021/12/02 01:10:08;;;;;;;14.30;3.95;;;7.30;99.90;;;;;;2067700;28;20026;-71
2021/12/02 01:11:10;;;;;;;16.65;4.28;;;7.40;99.90;;;;;;2072431;28;20018;-71
2021/12/02 01:12:10;;;;;;;11.73;3.92;;;7.40;99.90;;;;;;2071750;28;20474;-71
2021/12/02 01:13:11;;;;;;;14.77;3.42;;;7.40;99.90;;;;;;2079992;28;20438;-71
2021/12/02 01:14:12;;;;;;;16.80;3.55;;;7.30;99.90;;;;;;2079773;28;20037;-71
2021/12/02 01:15:13;;;;;;;12.20;3.70;;;7.30;99.90;;;;;;2072177;28;20077;-72
2021/12/02 01:16:15;;;;;;;9.43;3.97;;;7.30;99.90;;;;;;2072007;28;20144;-72
2021/12/02 01:17:16;;;;;;;14.43;4.35;;;7.30;99.90;;;;;;2072619;28;20061;-71
2021/12/02 01:18:16;;;;;;;12.70;4.32;;;7.40;99.90;;;;;;2071515;28;20022;-72
2021/12/02 01:19:17;;;;;;;16.92;3.97;;;7.40;99.90;;;;;;2072172;28;20033;-72
2021/12/02 01:20:18;;;;;;;14.07;3.95;;;7.30;99.90;;;;;;2071817;28;20022;-71
2021/12/02 01:21:21;;;;;;;10.48;3.90;;;7.30;99.90;;;;;;2072356;28;20425;-71
2021/12/02 01:22:24;;;;;;;17.27;4.03;;;7.30;99.90;;;;;;2072138;28;20044;-71
2021/12/02 01:23:30;;;;;;;10.05;3.97;;;7.30;99.90;;;;;;2072159;28;20034;-72
2021/12/02 01:24:31;;;;;;;17.65;4.00;;;7.40;99.90;;;;;;2071791;28;20020;-72
2021/12/02 01:25:32;;;;;;;10.20;3.55;;;7.40;99.90;;;;;;2071687;28;20041;-72
2021/12/02 01:26:35;;;;;;;13.18;3.33;;;7.40;99.90;;;;;;2071200;28;20072;-72
2021/12/02 01:27:36;;;;;;;8.95;3.35;;;7.40;99.90;;;;;;2071637;28;20022;-72
2021/12/02 01:28:37;;;;;;;10.02;3.40;;;7.40;99.90;;;;;;2072088;28;20454;-71
2021/12/02 01:29:40;;;;;;;8.02;2.90;;;7.40;99.90;;;;;;2072287;28;20382;-71
2021/12/02 01:30:40;;;;;;;13.77;3.38;;;7.40;99.90;;;;;;2071787;28;20459;-71
2021/12/02 01:31:42;;;;;;;11.00;3.67;;;7.40;99.90;;;;;;2071898;28;20396;-71
2021/12/02 01:32:45;;;;;;;14.30;4.63;;;7.40;99.90;;;;;;2071725;28;20052;-72
2021/12/02 01:33:46;;;;;;;13.25;3.83;;;7.40;99.90;;;;;;2072357;28;20025;-72
2021/12/02 01:34:48;;;;;;;17.98;3.75;;;7.40;99.90;;;;;;2064007;28;20039;-72
2021/12/02 01:35:51;;;;;;;14.60;3.97;;;7.40;99.90;;;;;;2070160;28;20029;-71
2021/12/02 01:36:54;;;;;;;12.90;3.95;;;7.40;99.90;;;;;;2071988;28;20037;-72
2021/12/02 01:39:51;;;;;;;15.90;3.70;;;7.40;99.90;;;;;;2064909;28;20221;-71
2021/12/02 01:40:53;;;;;;;13.27;3.55;;;7.40;99.90;;;;;;2074556;28;20029;-72
2021/12/02 01:41:58;;;;;;;12.38;4.03;;;7.40;99.90;;;;;;2071677;28;20514;-72
2021/12/02 01:42:59;;;;;;;14.02;3.33;;;7.40;99.90;;;;;;2071310;28;20030;-71
2021/12/02 01:44:00;;;;;;;13.57;3.90;;;7.40;99.90;;;;;;2071511;28;20088;-71
2021/12/02 01:45:02;;;;;;;15.50;4.25;;;7.40;99.90;;;;;;2071878;28;20037;-71
2021/12/02 01:46:03;;;;;;;11.10;3.22;;;7.40;99.90;;;;;;2071812;28;20901;-71
2021/12/02 01:47:11;;;;;;;12.93;3.40;;;7.40;99.90;;;;;;2071913;28;20030;-71
2021/12/02 01:48:19;;;;;;;10.02;3.30;;;7.40;99.90;;;;;;2071919;28;20030;-71
2021/12/02 01:49:22;;;;;;;15.70;3.55;;;7.30;99.90;;;;;;2071390;28;20061;-72
2021/12/02 01:50:26;;;;;;;11.20;3.58;;;7.30;99.90;;;;;;2072033;28;20033;-71
2021/12/02 01:51:27;;;;;;;12.32;3.50;;;7.30;99.90;;;;;;2072092;28;20022;-72
2021/12/02 01:52:44;;;;;;;16.42;3.60;;;7.30;99.90;;;;;;2073731;28;20028;-71
2021/12/02 01:53:50;;;;;;;12.60;3.92;;;7.30;99.90;;;;;;2075703;28;20522;-71
2021/12/02 01:55:00;;;;;;;13.02;3.47;;;7.30;99.90;;;;;;2072046;28;20029;-72
2021/12/02 01:56:11;;;;;;;9.63;3.40;;;7.30;99.90;;;;;;2072573;28;20018;-72
2021/12/02 01:57:26;;;;;;;14.05;4.03;;;7.30;99.90;;;;;;2071625;28;20026;-71
2021/12/02 01:58:28;;;;;;;11.75;3.58;;;7.30;99.90;;;;;;2079413;28;20063;-71
2021/12/02 01:59:34;;;;;;;10.48;3.10;;;7.30;99.90;;;;;;2070946;28;20085;-71
2021/12/02 02:00:44;;;;;;;12.50;3.40;;;7.30;99.90;;;;;;2071136;28;20060;-71
2021/12/02 02:01:46;;;;;;;;;;;7.30;99.90;;;;;;2072256;28;20479;-72
2021/12/02 02:02:47;;;;;;;10.38;3.45;;;7.20;99.90;;;;;;2072151;28;20439;-71
2021/12/02 02:03:50;;;;;;;11.45;3.80;;;7.20;99.90;;;;;;2071844;28;20018;-71
2021/12/02 02:04:51;;;;;;;9.57;3.30;;;7.20;99.90;;;;;;2071645;28;20034;-72
2021/12/02 02:05:59;;;;;;;10.77;3.63;;;7.20;99.90;;;;;;2071986;28;20282;-72
2021/12/02 02:07:00;;;;;;;13.63;3.83;;;7.30;99.90;;;;;;2071832;28;20080;-71
2021/12/02 02:08:03;;;;;;;13.07;3.85;;;7.30;99.90;;;;;;2071140;28;20114;-72
2021/12/02 02:09:07;;;;;;;13.68;4.10;;;7.30;99.90;;;;;;2071999;28;20022;-71
2021/12/02 02:10:07;;;;;;;15.63;4.63;;;7.30;99.90;;;;;;2067045;28;20375;-71
2021/12/02 02:11:08;;;;;;;13.27;3.97;;;7.30;99.90;;;;;;2071854;28;20049;-72
2021/12/02 02:12:12;;;;;;;13.52;3.88;;;7.30;99.90;;;;;;2070909;28;20425;-71
2021/12/02 02:13:14;;;;;;;15.82;4.38;;;7.30;99.90;;;;;;2071542;28;20453;-71
2021/12/02 02:14:15;;;;;;;12.10;3.72;;;7.30;99.90;;;;;;2071788;28;20032;-71
2021/12/02 02:15:17;;;;;;;16.45;4.05;;;7.30;99.90;;;;;;2071845;28;20033;-71
2021/12/02 02:16:17;;;;;;;12.80;4.07;;;7.30;99.90;;;;;;2071439;28;20026;-72
2021/12/02 02:17:26;;;;;;;14.52;4.20;;;7.30;99.90;;;;;;2071897;28;20037;-72
2021/12/02 02:18:27;;;;;;;13.52;3.92;;;7.30;99.90;;;;;;2071391;28;20018;-71
2021/12/02 02:19:30;;;;;;;13.45;4.25;;;7.30;99.90;;;;;;2071797;28;20022;-72
2021/12/02 02:20:40;;;;;;;10.90;3.25;;;7.30;99.90;;;;;;2069220;28;20014;-72
2021/12/02 02:21:42;;;;;;;15.30;4.35;;;7.30;99.90;;;;;;2073173;28;20025;-72
2021/12/02 02:22:42;;;;;;;11.45;4.28;;;7.30;99.90;;;;;;2072259;28;20029;-72
2021/12/02 02:23:49;;;;;;;13.60;4.03;;;7.30;99.90;;;;;;2075545;28;20025;-72
2021/12/02 02:24:51;;;;;;;10.88;3.88;;;7.30;99.90;;;;;;2072381;28;20057;-72
2021/12/02 02:25:51;;;;;;;10.95;3.97;;;7.30;99.90;;;;;;2081185;28;20027;-72
2021/12/02 02:26:52;;;;;;;12.23;3.90;;;7.30;99.90;;;;;;2078661;28;20021;-72
2021/12/02 02:27:53;;;;;;;10.15;3.38;;;7.30;99.90;;;;;;2071001;28;20026;-72
2021/12/02 02:28:55;;;;;;;11.65;3.65;;;7.30;99.90;;;;;;2071627;28;20105;-72
2021/12/02 02:29:55;;;;;;;15.07;4.18;;;7.30;99.90;;;;;;2074090;28;20053;-72
2021/12/02 02:30:56;;;;;;;10.95;3.78;;;7.30;99.90;;;;;;2068986;28;20018;-72
2021/12/02 02:31:57;;;;;;;16.52;3.80;;;7.30;99.90;;;;;;2070887;28;20034;-72
2021/12/02 02:32:58;;;;;;;12.77;3.38;;;7.30;99.90;;;;;;2071367;28;20041;-72
2021/12/02 02:33:59;;;;;;;16.60;4.22;;;7.30;99.90;;;;;;2071527;28;20030;-72
2021/12/02 02:35:00;;;;;;;14.20;3.80;;;7.30;99.90;;;;;;2071694;28;20018;-72
2021/12/02 02:36:00;;;;;;;19.58;3.67;;;7.30;99.90;;;;;;2065683;28;20105;-72
2021/12/02 02:37:04;;;;;;;11.73;3.63;;;7.30;99.90;;;;;;2064323;28;20034;-72
2021/12/02 02:38:05;;;;;;;13.77;4.18;;;7.30;99.90;;;;;;2070738;28;20060;-71
2021/12/02 02:39:06;;;;;;;14.20;4.00;;;7.30;99.90;;;;;;2074046;28;20041;-71
2021/12/02 02:40:16;;;;;;;10.30;3.55;;;7.30;99.90;;;;;;2071283;28;20113;-71
2021/12/02 02:41:20;;;;;;;;;;;7.30;99.90;;;;;;2080393;28;20031;-71
2021/12/02 02:42:23;;;;;;;12.57;2.83;;;7.20;99.90;;;;;;2081291;28;20329;-71
2021/12/02 02:43:26;;;;;;;14.13;3.55;;;7.30;99.90;;;;;;2076086;28;20022;-72
2021/12/02 02:44:28;;;;;;;8.48;3.40;;;7.30;99.90;;;;;;2071451;28;20030;-72
2021/12/02 02:45:29;;;;;;;10.98;3.45;;;7.30;99.90;;;;;;2075249;28;20060;-72
2021/12/02 02:46:36;;;;;;;13.95;3.75;;;7.30;99.90;;;;;;2071421;28;20033;-71
2021/12/02 02:47:37;;;;;;;9.63;3.08;;;7.30;99.90;;;;;;2071247;28;20872;-71
2021/12/02 02:48:37;;;;;;;12.48;3.08;;;7.30;99.90;;;;;;2071149;28;20385;-72
2021/12/02 02:49:38;;;;;;;14.90;3.83;;;7.30;99.90;;;;;;2077312;28;20100;-72
2021/12/02 02:50:38;;;;;;;10.77;3.30;;;7.40;99.90;;;;;;2072986;28;20025;-72
2021/12/02 02:51:41;;;;;;;9.75;3.38;;;7.40;99.90;;;;;;2071063;28;20029;-72
2021/12/02 02:52:44;;;;;;;8.02;3.60;;;7.40;99.90;;;;;;2071717;28;20018;-72
2021/12/02 02:53:50;;;;;;;10.65;3.63;;;7.40;99.90;;;;;;2071011;28;20101;-72
2021/12/02 02:54:51;;;;;;;12.00;3.72;;;7.40;99.90;;;;;;2071504;28;20033;-72
2021/12/02 02:56:04;;;;;;;10.35;3.08;;;7.40;99.90;;;;;;2071582;28;20053;-72
2021/12/02 02:57:08;;;;;;;11.23;3.10;;;7.40;99.90;;;;;;2070776;28;20108;-72
2021/12/02 03:00:03;;;;;;;10.48;3.60;;;7.40;99.90;;;;;;2062702;28;20026;-72
2021/12/02 03:02:24;;;;;;;7.88;3.17;;;7.30;99.90;;;;;;2063859;28;20085;-72
2021/12/02 03:07:59;;;;;;;11.30;3.22;;;7.10;99.90;;;;;;2065449;28;20033;-72
2021/12/02 03:09:00;;;;;;;9.18;3.05;;;7.10;99.90;;;;;;2069880;28;20498;-72
2021/12/02 03:10:43;;;;;;;11.80;3.35;;;7.10;99.90;;;;;;2066524;28;20485;-72
2021/12/02 03:11:38;;;;;;;7.32;3.05;;;7.10;99.90;;;;;;2069691;28;20034;-72
2021/12/02 03:12:42;;;;;;;7.95;3.03;;;7.00;99.90;;;;;;2071643;28;20022;-72
2021/12/02 03:13:53;;;;;;;7.07;2.88;;;7.00;99.90;;;;;;2071783;28;20022;-72
2021/12/02 03:17:22;;;;;;;11.80;3.45;;;6.90;99.90;;;;;;2070776;28;20026;-72
2021/12/02 03:18:22;;;;;;;12.25;3.28;;;7.00;99.90;;;;;;2070915;28;20022;-72
2021/12/02 03:19:25;;;;;;;6.95;3.00;;;6.90;99.90;;;;;;2079073;28;20064;-72
2021/12/02 03:20:26;;;;;;;7.20;3.17;;;6.90;99.90;;;;;;2078470;28;20044;-72
2021/12/02 03:21:28;;;;;;;9.50;3.20;;;6.90;99.90;;;;;;2071025;28;20065;-72
2021/12/02 03:22:29;;;;;;;8.30;3.03;;;7.00;99.90;;;;;;2071089;28;20033;-72
2021/12/02 03:23:30;;;;;;;8.95;2.95;;;7.00;99.90;;;;;;2071874;28;20022;-72
2021/12/02 03:24:30;;;;;;;9.63;3.05;;;7.00;99.90;;;;;;2070433;28;20133;-72
2021/12/02 03:25:31;;;;;;;9.43;3.10;;;7.00;99.90;;;;;;2070517;28;20022;-72
2021/12/02 03:26:32;;;;;;;9.13;3.03;;;7.00;99.90;;;;;;2070989;28;20017;-72
2021/12/02 03:27:32;;;;;;;11.57;3.08;;;7.00;99.90;;;;;;2071502;28;20034;-72
2021/12/02 03:28:33;;;;;;;5.15;2.42;;;6.90;99.90;;;;;;2070550;28;20041;-71
2021/12/02 03:29:34;;;;;;;8.38;2.83;;;7.00;99.90;;;;;;2071194;28;20491;-72
2021/12/02 03:30:35;;;;;;;6.28;2.80;;;7.00;99.90;;;;;;2070847;28;20080;-72
2021/12/02 03:31:35;;;;;;;8.63;2.65;;;7.00;99.90;;;;;;2070568;28;20628;-72
2021/12/02 03:32:37;;;;;;;8.88;2.50;;;7.00;99.90;;;;;;2071395;28;20026;-72
2021/12/02 03:33:37;;;;;;;7.43;2.38;;;6.90;99.90;;;;;;2071542;28;20482;-72
2021/12/02 03:34:39;;;;;;;4.40;2.47;;;6.90;99.90;;;;;;2070355;28;20030;-72
2021/12/02 03:35:40;;;;;;;4.95;2.15;;;6.90;99.90;;;;;;2070580;28;20029;-72
2021/12/02 03:36:41;;;;;;;6.32;2.17;;;6.90;99.90;;;;;;2078648;28;20033;-72
2021/12/02 03:37:42;;;;;;;8.57;3.08;;;6.90;99.90;;;;;;2086660;28;20060;-72
2021/12/02 03:38:43;;;;;;;5.13;2.47;;;6.90;99.90;;;;;;2079120;28;20021;-72
2021/12/02 03:39:44;;;;;;;8.05;2.45;;;6.90;99.90;;;;;;2073026;28;20475;-72
2021/12/02 03:40:44;;;;;;;10.63;2.67;;;6.90;99.90;;;;;;2072942;28;20080;-72
2021/12/02 03:41:45;;;;;;;4.50;2.25;;;6.90;99.90;;;;;;2072859;28;20493;-72
2021/12/02 03:42:51;;;;;;;5.97;2.00;;;6.90;99.90;;;;;;2073022;28;20029;-72
2021/12/02 03:43:52;;;;;;;3.45;1.90;;;6.90;99.90;;;;;;2072702;28;20029;-72
2021/12/02 03:44:53;;;;;;;5.43;2.10;;;6.90;99.90;;;;;;2072875;28;20022;-72
2021/12/02 03:45:54;;;;;;;4.30;1.98;;;7.00;99.90;;;;;;2073062;28;20497;-72
2021/12/02 03:46:54;;;;;;;5.72;2.20;;;7.00;99.90;;;;;;2070619;28;20030;-72
2021/12/02 03:47:55;;;;;;;6.45;2.28;;;7.00;99.90;;;;;;2064398;28;20026;-72
2021/12/02 03:48:56;;;;;;;6.97;2.50;;;7.00;99.90;;;;;;2072887;28;20078;-72
2021/12/02 03:49:57;;;;;;;5.35;1.92;;;7.00;99.90;;;;;;2073024;28;20120;-72
2021/12/02 03:50:58;;;;;;;6.80;2.00;;;7.00;99.90;;;;;;2072424;28;20521;-72
2021/12/02 03:51:59;;;;;;;6.18;1.90;;;7.00;99.90;;;;;;2072475;28;20029;-72
2021/12/02 03:52:59;;;;;;;9.50;2.08;;;7.00;99.90;;;;;;2073040;28;20029;-72
2021/12/02 03:54:00;;;;;;;4.40;2.00;;;6.90;99.90;;;;;;2072906;28;20034;-72
2021/12/02 03:55:02;;;;;;;4.25;2.30;;;7.00;99.90;;;;;;2072788;28;20508;-72
2021/12/02 03:56:06;;;;;;;7.63;2.13;;;6.90;99.90;;;;;;2072047;28;20030;-72
2021/12/02 03:57:07;;;;;;;7.30;1.88;;;6.90;99.90;;;;;;2072190;28;20486;-72
2021/12/02 03:58:07;;;;;;;6.45;2.30;;;7.00;99.90;;;;;;2072024;28;20421;-72
2021/12/02 03:59:08;;;;;;;3.03;1.85;;;6.90;99.90;;;;;;2073037;28;20121;-72
2021/12/02 04:00:09;;;;;;;6.05;2.17;;;7.00;99.90;;;;;;2072802;28;20164;-72
2021/12/02 04:01:10;;;;;;;5.10;1.90;;;7.00;99.90;;;;;;2072181;28;20545;-72
2021/12/02 04:02:11;;;;;;;5.18;1.98;;;7.00;99.90;;;;;;2072074;28;20414;-72
2021/12/02 04:03:12;;;;;;;5.65;2.22;;;7.00;99.90;;;;;;2071792;28;20022;-72
2021/12/02 04:04:12;;;;;;;5.85;2.33;;;7.00;99.90;;;;;;2071694;28;20057;-72
2021/12/02 04:05:13;;;;;;;6.38;2.42;;;7.00;99.90;;;;;;2073082;28;20056;-72
2021/12/02 04:06:14;;;;;;;5.28;2.22;;;7.00;99.90;;;;;;2072617;28;20105;-72
2021/12/02 04:07:18;;;;;;;8.43;3.22;;;7.00;99.90;;;;;;2073006;28;20045;-72
2021/12/02 04:08:19;;;;;;;6.85;2.50;;;7.00;99.90;;;;;;2072262;28;20055;-72
2021/12/02 04:09:21;;;;;;;5.72;2.80;;;7.00;99.90;;;;;;2073091;28;20533;-72
2021/12/02 04:10:23;;;;;;;9.68;3.50;;;7.10;99.90;;;;;;2067280;28;20072;-72
2021/12/02 04:11:32;;;;;;;7.22;3.00;;;7.00;99.90;;;;;;2072755;28;20025;-72
2021/12/02 04:12:47;;;;;;;8.25;2.80;;;7.00;99.90;;;;;;2072238;28;20021;-72
2021/12/02 04:14:26;;;;;;;7.82;2.80;;;7.00;99.90;;;;;;2064112;28;20062;-72
2021/12/02 04:15:22;;;;;;;6.85;3.42;;;7.00;99.90;;;;;;2068575;28;20132;-72
2021/12/02 04:16:23;;;;;;;8.40;2.95;;;7.00;99.90;;;;;;2072558;28;20381;-72
2021/12/02 04:17:57;;;;;;;5.25;2.80;;;6.90;99.90;;;;;;2073171;28;20914;-72
2021/12/02 04:18:51;;;;;;;5.70;2.42;;;6.90;99.90;;;;;;2063452;28;20042;-72
2021/12/02 04:19:51;;;;;;;12.13;2.58;;;6.80;99.90;;;;;;2070873;28;20018;-72
2021/12/02 04:20:52;;;;;;;5.95;2.25;;;6.80;99.90;;;;;;2071994;28;20121;-71
2021/12/02 04:21:54;;;;;;;6.53;2.28;;;6.80;99.90;;;;;;2072751;28;20030;-72
2021/12/02 04:22:56;;;;;;;6.78;2.38;;;6.80;99.90;;;;;;2072414;28;20026;-72
2021/12/02 04:23:57;;;;;;;5.57;2.10;;;6.80;99.90;;;;;;2072320;28;20034;-72
2021/12/02 04:24:57;;;;;;;6.97;2.33;;;6.70;99.90;;;;;;2072277;28;20061;-72
2021/12/02 04:25:58;;;;;;;5.70;2.10;;;6.70;99.90;;;;;;2071932;28;20561;-72
2021/12/02 04:26:59;;;;;;;5.55;2.00;;;6.70;99.90;;;;;;2072103;28;20022;-72
2021/12/02 04:28:00;;;;;;;4.80;1.92;;;6.70;99.90;;;;;;2071410;28;20022;-72
2021/12/02 04:29:00;;;;;;;7.47;2.42;;;6.70;99.90;;;;;;2072601;28;20117;-72
2021/12/02 04:30:04;;;;;;;7.03;2.10;;;6.70;99.90;;;;;;2072189;28;20181;-72
2021/12/02 04:31:05;;;;;;;4.75;1.77;;;6.60;99.90;;;;;;2071599;28;20041;-72
2021/12/02 04:32:06;;;;;;;5.32;1.80;;;6.60;99.90;;;;;;2072191;28;20086;-72
2021/12/02 04:33:06;;;;;;;6.07;2.05;;;6.60;99.90;;;;;;2071906;28;20544;-72
2021/12/02 04:34:07;;;;;;;6.15;1.75;;;6.60;99.90;;;;;;2072359;28;20080;-72
2021/12/02 04:35:08;;;;;;;4.60;2.05;;;6.60;99.90;;;;;;2071893;28;20026;-72
2021/12/02 04:36:09;;;;;;;6.10;2.17;;;6.60;99.90;;;;;;2071890;28;20037;-72
2021/12/02 04:37:10;;;;;;;7.15;2.72;;;6.60;99.90;;;;;;2072022;28;20112;-72
2021/12/02 04:38:10;;;;;;;5.20;2.35;;;6.60;99.90;;;;;;2071544;28;20030;-72
2021/12/02 04:39:11;;;;;;;6.05;2.28;;;6.60;99.90;;;;;;2071824;28;20083;-72
2021/12/02 04:40:15;;;;;;;9.85;2.97;;;6.60;99.90;;;;;;2071968;28;20018;-72
2021/12/02 04:41:17;;;;;;;6.53;3.13;;;6.60;99.90;;;;;;2071437;28;20022;-72
2021/12/02 04:42:18;;;;;;;9.00;3.22;;;6.60;99.90;;;;;;2075047;28;20026;-72
2021/12/02 04:43:18;;;;;;;6.82;3.50;;;6.60;99.90;;;;;;2074411;28;20025;-71
2021/12/02 04:44:19;;;;;;;6.95;3.60;;;6.60;99.90;;;;;;2080301;28;20604;-72
2021/12/02 04:45:19;;;;;;;6.50;4.10;;;6.60;99.90;;;;;;2079672;28;20471;-72
2021/12/02 04:46:20;;;;;;;10.43;5.00;;;6.60;99.90;;;;;;2071536;28;20116;-71
2021/12/02 04:47:21;;;;;;;10.43;4.72;;;6.60;99.90;;;;;;2071213;28;20034;-72
2021/12/02 04:48:22;;;;;;;8.65;5.43;;;6.60;99.90;;;;;;2070692;28;20022;-71
2021/12/02 04:49:22;;;;;;;8.55;5.82;;;6.60;99.90;;;;;;2078237;28;20009;-72
2021/12/02 04:50:23;;;;;;;11.07;6.18;;;6.60;99.90;;;;;;2072091;28;20030;-72
2021/12/02 04:51:23;;;;;;;11.85;6.13;;;6.50;99.90;;;;;;2074526;28;20038;-72
2021/12/02 04:52:24;;;;;;;8.63;5.72;;;6.60;99.90;;;;;;2073189;28;20642;-72
2021/12/02 04:53:24;;;;;;;11.57;6.18;;;6.60;99.90;;;;;;2072245;28;20028;-72
2021/12/02 04:54:25;;;;;;;11.82;6.20;;;6.60;99.90;;;;;;2071294;28;20518;-71
2021/12/02 04:55:25;;;;;;;11.05;6.20;;;6.60;99.90;;;;;;2071864;28;20022;-72
2021/12/02 04:56:26;;;;;;;9.27;6.07;;;6.60;99.90;;;;;;2071987;28;20080;-72
2021/12/02 04:57:26;;;;;;;6.70;5.20;;;6.60;99.90;;;;;;2072103;28;20030;-72
2021/12/02 04:58:28;;;;;;;10.07;6.15;;;6.60;99.90;;;;;;2071402;28;20097;-72
2021/12/02 04:59:29;;;;;;;10.05;6.10;;;6.50;99.90;;;;;;2072147;28;20029;-72
2021/12/02 05:00:30;;;;;;;8.63;5.70;;;6.50;99.90;;;;;;2071401;28;20600;-71
2021/12/02 05:01:30;;;;;;;8.50;5.95;;;6.50;99.90;;;;;;2071248;28;20140;-72
2021/12/02 05:02:31;;;;;;;7.93;6.05;;;6.50;99.90;;;;;;2070990;28;20022;-72
2021/12/02 05:03:31;;;;;;;10.13;5.63;;;6.50;99.90;;;;;;2072029;28;20045;-72
2021/12/02 05:04:32;;;;;;;8.80;5.20;;;6.50;99.90;;;;;;2071926;28;20018;-72
2021/12/02 05:05:33;;;;;;;10.05;5.47;;;6.50;99.90;;;;;;2071989;28;20067;-72
2021/12/02 05:06:34;;;;;;;8.50;4.85;;;6.50;99.90;;;;;;2071620;28;20484;-72
2021/12/02 05:07:35;;;;;;;7.95;4.93;;;6.50;99.90;;;;;;2071889;28;20041;-72
2021/12/02 05:08:35;;;;;;;8.65;4.90;;;6.50;99.90;;;;;;2071090;28;20065;-72
2021/12/02 05:09:36;;;;;;;12.40;4.72;;;6.60;99.90;;;;;;2070865;28;20021;-72
2021/12/02 05:10:36;;;;;;;6.47;4.28;;;6.50;99.90;;;;;;2069500;28;20076;-72
2021/12/02 05:11:40;;;;;;;9.85;4.00;;;6.50;99.90;;;;;;2071774;28;20026;-71
2021/12/02 05:12:41;;;;;;;10.43;4.10;;;6.50;99.90;;;;;;2071365;28;20025;-71
2021/12/02 05:13:41;;;;;;;7.07;3.42;;;6.50;99.90;;;;;;2071345;28;20034;-72
2021/12/02 05:14:42;;;;;;;7.95;3.92;;;6.50;99.90;;;;;;2071198;28;20105;-72
2021/12/02 05:15:42;;;;;;;6.63;3.17;;;6.50;99.90;;;;;;2072070;28;20026;-72
2021/12/02 05:16:43;;;;;;;7.25;3.35;;;6.50;99.90;;;;;;2071468;28;20022;-72
2021/12/02 05:17:44;;;;;;;7.22;3.92;;;6.50;99.90;;;;;;2071611;28;20084;-72
2021/12/02 05:18:44;;;;;;;8.00;4.03;;;6.50;99.90;;;;;;2071333;28;20113;-72
2021/12/02 05:19:46;;;;;;;8.52;3.80;;;6.50;99.90;;;;;;2071905;28;20037;-71
2021/12/02 05:20:48;;;;;;;10.27;4.05;;;6.50;99.90;;;;;;2071220;28;20030;-72
2021/12/02 05:21:48;;;;;;;5.82;3.28;;;6.50;99.90;;;;;;2071722;28;20100;-72
2021/12/02 05:22:49;;;;;;;7.47;3.70;;;6.50;99.90;;;;;;2071805;28;20037;-71
2021/12/02 05:23:53;;;;;;;8.85;3.55;;;6.50;99.90;;;;;;2071855;28;20026;-72
2021/12/02 05:24:54;;;;;;;7.57;3.25;;;6.50;99.90;;;;;;2066123;28;20510;-72
2021/12/02 05:25:54;;;;;;;7.82;3.67;;;6.50;99.90;;;;;;2067456;28;20442;-72
2021/12/02 05:26:55;;;;;;;7.60;3.72;;;6.50;99.90;;;;;;2065986;28;20090;-71
2021/12/02 05:27:56;;;;;;;8.63;3.45;;;6.50;99.90;;;;;;2064934;28;20035;-72
2021/12/02 05:28:56;;;;;;;6.43;2.80;;;6.50;99.90;;;;;;2070537;28;20033;-72
2021/12/02 05:29:57;;;;;;;11.45;3.28;;;6.50;99.90;;;;;;2071302;28;20076;-71
2021/12/02 05:30:57;;;;;;;5.45;2.67;;;6.50;99.90;;;;;;2071542;28;20049;-71
2021/12/02 05:31:59;;;;;;;7.25;3.20;;;6.50;99.90;;;;;;2034840;28;1073901;-71
2021/12/02 05:32:59;;;;;;;6.05;2.58;;;6.50;99.90;;;;;;2072198;28;20379;-71
2021/12/02 05:34:00;;;;;;;7.15;2.70;;;6.50;99.90;;;;;;2070267;28;20076;-72
2021/12/02 05:35:01;;;;;;;6.18;2.92;;;6.50;99.90;;;;;;2069134;28;20029;-72
2021/12/02 05:36:02;;;;;;;5.60;2.63;;;6.50;99.90;;;;;;2071583;28;20474;-72
2021/12/02 05:37:02;;;;;;;6.05;2.47;;;6.50;99.90;;;;;;2064255;28;20077;-72
2021/12/02 05:38:03;;;;;;;7.30;2.35;;;6.50;99.90;;;;;;2066957;28;20054;-72
2021/12/02 05:39:04;;;;;;;6.18;2.53;;;6.50;99.90;;;;;;2067065;28;20056;-72
2021/12/02 05:40:05;;;;;;;6.97;2.72;;;6.40;99.90;;;;;;2065262;28;20027;-72
2021/12/02 05:41:06;;;;;;;6.32;2.05;;;6.40;99.90;;;;;;2065305;28;20022;-71
2021/12/02 05:42:06;;;;;;;6.72;2.03;;;6.40;99.90;;;;;;2067747;28;20022;-72